Time;durP1;ratioP1;P1;durP2;ratioP2;P2;SDS_P1;SDS_P2;PMS_P1;PMS_P2;Temp;Humidity;BMP_temperature;BMP_pressure;BME280_temperature;BME280_humidity;BME280_pressure;Samples;Min_cycle;Max_cycle;Signal;HPM_P1;HPM_P2
2023/01/05 00:03:01;;;;;;;;;;;17.70;54.80;;;;;;10243282;28;1008;-80
2023/01/05 00:07:56;;;;;;;;;;;17.80;54.90;;;;;;10243785;28;1911;-80
2023/01/05 00:23:19;;;;;;;;;;;17.80;54.80;;;;;;10243195;28;612;-80
2023/01/05 00:28:14;;;;;;;;;;;17.80;54.80;;;;;;10243322;28;1906;-80
2023/01/05 00:33:10;;;;;;;;;;;17.80;54.80;;;;;;10250029;28;1397;-80
2023/01/05 00:38:05;;;;;;;;;;;17.80;54.80;;;;;;10250996;28;851;-80
2023/01/05 00:43:01;;;;;;;;;;;17.80;54.80;;;;;;10251483;28;857;-80
2023/01/05 00:47:56;;;;;;;;;;;17.80;54.80;;;;;;10251280;28;1981;-80
2023/01/05 00:52:51;;;;;;;;;;;17.80;54.70;;;;;;10250543;28;814;-81
2023/01/05 00:57:47;;;;;;;;;;;17.80;54.80;;;;;;10251003;28;794;-80
2023/01/05 01:02:42;;;;;;;;;;;17.80;54.80;;;;;;10250708;28;791;-80
2023/01/05 01:07:37;;;;;;;;;;;17.80;54.80;;;;;;10249210;28;1961;-80
2023/01/05 01:12:33;;;;;;;;;;;17.80;54.70;;;;;;10250452;28;778;-80
2023/01/05 01:17:28;;;;;;;;;;;17.80;54.70;;;;;;10248297;28;854;-80
2023/01/05 01:22:23;;;;;;;;;;;17.80;54.70;;;;;;10250226;28;826;-80
2023/01/05 01:27:19;;;;;;;;;;;17.80;54.70;;;;;;10249114;28;1887;-80
2023/01/05 01:32:14;;;;;;;;;;;17.80;54.70;;;;;;10248820;28;1125;-80
2023/01/05 01:37:10;;;;;;;;;;;17.80;54.70;;;;;;10249431;28;850;-80
2023/01/05 01:42:06;;;;;;;;;;;17.80;54.70;;;;;;10247864;28;887;-80
2023/01/05 01:47:01;;;;;;;;;;;17.80;54.80;;;;;;10248310;28;1910;-80
2023/01/05 01:51:56;;;;;;;;;;;17.80;54.70;;;;;;10248313;28;865;-80
2023/01/05 01:56:52;;;;;;;;;;;17.80;54.70;;;;;;10248093;28;798;-80
2023/01/05 02:01:47;;;;;;;;;;;17.80;54.60;;;;;;10247818;28;1033;-80
2023/01/05 02:06:43;;;;;;;;;;;17.80;54.70;;;;;;10247720;28;2005;-80
2023/01/05 02:11:38;;;;;;;;;;;17.80;54.70;;;;;;10247514;28;822;-80
2023/01/05 02:16:33;;;;;;;;;;;17.80;54.60;;;;;;10248064;28;881;-80
2023/01/05 02:21:29;;;;;;;;;;;17.80;54.60;;;;;;10246658;28;772;-80
2023/01/05 02:26:24;;;;;;;;;;;17.80;54.50;;;;;;10246879;28;1985;-80
2023/01/05 02:31:19;;;;;;;;;;;17.80;54.50;;;;;;10247321;28;870;-80
2023/01/05 02:36:15;;;;;;;;;;;17.80;54.60;;;;;;10246486;28;1511;-80
2023/01/05 02:41:10;;;;;;;;;;;17.80;54.60;;;;;;10246422;28;889;-80
2023/01/05 02:46:05;;;;;;;;;;;17.80;54.60;;;;;;10246234;28;1910;-79
2023/01/05 02:51:01;;;;;;;;;;;17.80;54.50;;;;;;10246045;28;763;-79
2023/01/05 02:55:56;;;;;;;;;;;17.80;54.50;;;;;;10245431;28;877;-79
2023/01/05 03:00:52;;;;;;;;;;;17.80;55.10;;;;;;10246204;28;862;-79
2023/01/05 03:05:47;;;;;;;;;;;17.80;54.50;;;;;;10245987;28;1894;-79
2023/01/05 03:16:07;;;;;;;;;;;17.80;54.40;;;;;;10190908;28;1308;-80
2023/01/05 03:21:03;;;;;;;;;;;17.70;54.40;;;;;;10244980;28;881;-79
2023/01/05 03:36:26;;;;;;;;;;;17.70;54.40;;;;;;10244991;28;1216;-79
2023/01/05 03:41:22;;;;;;;;;;;17.70;54.30;;;;;;10243783;28;842;-79
2023/01/05 03:46:17;;;;;;;;;;;17.80;54.40;;;;;;10244128;28;1910;-79
2023/01/05 03:51:13;;;;;;;;;;;17.80;54.40;;;;;;10244989;28;857;-79
2023/01/05 03:56:08;;;;;;;;;;;17.80;54.40;;;;;;10244317;28;854;-80
2023/01/05 04:01:03;;;;;;;;;;;17.80;54.30;;;;;;10243911;28;900;-79
2023/01/05 04:05:59;;;;;;;;;;;17.80;54.40;;;;;;10246475;28;1902;-80
2023/01/05 04:10:55;;;;;;;;;;;17.80;54.40;;;;;;10252132;28;799;-79
2023/01/05 04:15:50;;;;;;;;;;;17.80;54.40;;;;;;10251953;28;842;-80
2023/01/05 04:20:46;;;;;;;;;;;17.80;54.30;;;;;;10251724;28;777;-80
2023/01/05 04:25:41;;;;;;;;;;;17.80;54.40;;;;;;10251507;28;1910;-80
2023/01/05 04:30:36;;;;;;;;;;;17.80;54.40;;;;;;10252031;28;921;-79
2023/01/05 04:35:32;;;;;;;;;;;17.80;54.40;;;;;;10252216;28;1417;-80
2023/01/05 04:40:27;;;;;;;;;;;17.80;54.40;;;;;;10251106;28;774;-80
2023/01/05 04:45:22;;;;;;;;;;;17.80;54.40;;;;;;10251414;28;1910;-80
2023/01/05 04:50:18;;;;;;;;;;;17.80;54.40;;;;;;10251263;28;892;-80
2023/01/05 04:55:14;;;;;;;;;;;17.70;54.30;;;;;;10250452;28;1014;-80
2023/01/05 05:00:10;;;;;;;;;;;17.80;54.30;;;;;;10250285;28;841;-80
2023/01/05 05:05:05;;;;;;;;;;;17.80;54.30;;;;;;10250852;28;1906;-80
2023/01/05 05:10:00;;;;;;;;;;;17.80;54.30;;;;;;10250560;28;870;-80
2023/01/05 05:14:56;;;;;;;;;;;17.80;54.30;;;;;;10250586;28;850;-80
2023/01/05 05:19:51;;;;;;;;;;;17.80;54.30;;;;;;10249015;28;773;-80
2023/01/05 05:24:47;;;;;;;;;;;17.80;54.30;;;;;;10249281;28;1906;-80
2023/01/05 05:29:42;;;;;;;;;;;17.80;54.30;;;;;;10249761;28;857;-80
2023/01/05 05:34:37;;;;;;;;;;;17.80;54.20;;;;;;10249053;28;1236;-80
2023/01/05 05:39:33;;;;;;;;;;;17.80;54.10;;;;;;10249383;28;881;-83
2023/01/05 05:44:28;;;;;;;;;;;17.90;54.20;;;;;;10249634;28;1917;-82
2023/01/05 05:49:23;;;;;;;;;;;17.90;54.10;;;;;;10249041;28;810;-83
2023/01/05 05:54:19;;;;;;;;;;;17.90;54.10;;;;;;10247608;28;865;-82
2023/01/05 05:59:14;;;;;;;;;;;17.90;54.10;;;;;;10248644;28;823;-82
2023/01/05 06:04:10;;;;;;;;;;;17.90;54.10;;;;;;10248387;28;1906;-82
2023/01/05 06:09:05;;;;;;;;;;;18.00;54.10;;;;;;10247654;28;784;-82
2023/01/05 06:14:01;;;;;;;;;;;17.90;54.00;;;;;;10248074;28;802;-82
2023/01/05 06:18:57;;;;;;;;;;;18.00;54.10;;;;;;10248361;28;782;-82
2023/01/05 06:23:52;;;;;;;;;;;18.00;54.10;;;;;;10247162;28;1971;-82
2023/01/05 06:28:47;;;;;;;;;;;18.00;54.10;;;;;;10247454;28;855;-82
2023/01/05 06:33:43;;;;;;;;;;;18.00;54.10;;;;;;10247182;28;1266;-82
2023/01/05 06:38:38;;;;;;;;;;;18.00;54.10;;;;;;10246569;28;944;-82
2023/01/05 06:43:34;;;;;;;;;;;18.00;54.10;;;;;;10246594;28;957;-82
2023/01/05 06:48:29;;;;;;;;;;;18.00;54.10;;;;;;10246764;28;1910;-82
2023/01/05 06:53:25;;;;;;;;;;;18.00;54.00;;;;;;10245947;28;856;-82
2023/01/05 06:58:20;;;;;;;;;;;18.00;54.10;;;;;;10246510;28;873;-81
2023/01/05 07:03:16;;;;;;;;;;;18.00;54.10;;;;;;10245616;28;762;-81
2023/01/05 07:08:11;;;;;;;;;;;18.00;54.10;;;;;;10245202;28;1955;-76
2023/01/05 07:13:06;;;;;;;;;;;17.90;54.10;;;;;;10245564;28;810;-76
2023/01/05 07:18:02;;;;;;;;;;;17.90;54.10;;;;;;10245567;28;818;-75
2023/01/05 07:22:57;;;;;;;;;;;17.90;54.20;;;;;;10245229;28;846;-75
2023/01/05 07:27:52;;;;;;;;;;;17.90;54.20;;;;;;10244380;28;1898;-74
2023/01/05 07:32:48;;;;;;;;;;;17.90;54.20;;;;;;10244012;28;1299;-75
2023/01/05 07:37:43;;;;;;;;;;;17.90;54.20;;;;;;10244975;28;846;-75
2023/01/05 07:42:38;;;;;;;;;;;17.90;54.20;;;;;;10243450;28;877;-75
2023/01/05 07:47:34;;;;;;;;;;;17.90;54.20;;;;;;10243368;28;1910;-75
2023/01/05 07:52:30;;;;;;;;;;;17.90;54.20;;;;;;10243818;28;873;-71
2023/01/05 07:57:26;;;;;;;;;;;18.00;54.20;;;;;;10243822;28;872;-73
2023/01/05 08:02:21;;;;;;;;;;;18.20;54.40;;;;;;10243523;28;942;-72
2023/01/05 08:07:16;;;;;;;;;;;18.20;54.30;;;;;;10243768;28;1902;-72
2023/01/05 08:12:12;;;;;;;;;;;18.30;54.40;;;;;;10243959;28;1118;-73
2023/01/05 08:17:07;;;;;;;;;;;18.30;54.40;;;;;;10243701;28;891;-73
2023/01/05 08:22:02;;;;;;;;;;;18.30;54.50;;;;;;10243627;28;850;-73
2023/01/05 08:26:58;;;;;;;;;;;18.30;54.70;;;;;;10243673;28;1906;-73
2023/01/05 08:31:53;;;;;;;;;;;18.30;55.00;;;;;;10243460;28;964;-73
2023/01/05 08:36:49;;;;;;;;;;;18.40;55.10;;;;;;10244429;28;1154;-73
2023/01/05 08:41:44;;;;;;;;;;;18.40;55.30;;;;;;10243247;28;941;-73
2023/01/05 08:46:42;;;;;;;;;;;18.40;55.30;;;;;;10243105;28;1914;-72
2023/01/05 08:51:37;;;;;;;;;;;18.40;55.20;;;;;;10245038;28;794;-72
2023/01/05 08:56:33;;;;;;;;;;;18.40;55.20;;;;;;10249937;28;826;-73
2023/01/05 09:01:29;;;;;;;;;;;18.40;55.20;;;;;;10250794;28;869;-73
2023/01/05 09:06:25;;;;;;;;;;;18.40;55.10;;;;;;10249683;28;1905;-73
2023/01/05 09:11:20;;;;;;;;;;;18.40;55.30;;;;;;10249917;28;782;-72
2023/01/05 09:16:16;;;;;;;;;;;18.40;55.20;;;;;;10249707;28;873;-73
2023/01/05 09:21:11;;;;;;;;;;;18.40;55.30;;;;;;10250039;28;974;-73
2023/01/05 09:26:06;;;;;;;;;;;18.40;55.40;;;;;;10250117;28;1910;-72
2023/01/05 09:31:02;;;;;;;;;;;18.40;55.50;;;;;;10249767;28;814;-73
2023/01/05 09:35:57;;;;;;;;;;;18.30;55.40;;;;;;10249553;28;1153;-73
2023/01/05 09:40:52;;;;;;;;;;;18.40;55.40;;;;;;10245135;28;1086;-71
2023/01/05 09:45:48;;;;;;;;;;;18.40;55.40;;;;;;10248321;28;1914;-71
2023/01/05 09:50:43;;;;;;;;;;;18.40;55.50;;;;;;10247774;28;859;-68
2023/01/05 09:55:38;;;;;;;;;;;18.40;55.30;;;;;;10248694;28;818;-70
2023/01/05 10:00:34;;;;;;;;;;;18.40;55.30;;;;;;10247401;28;787;-70
2023/01/05 10:05:29;;;;;;;;;;;18.40;55.30;;;;;;10246946;28;1902;-71
2023/01/05 10:10:25;;;;;;;;;;;18.40;55.20;;;;;;10246999;28;893;-69
2023/01/05 10:15:20;;;;;;;;;;;18.50;55.20;;;;;;10246811;28;898;-70
2023/01/05 10:20:16;;;;;;;;;;;18.40;55.20;;;;;;10246899;28;829;-69
2023/01/05 10:25:11;;;;;;;;;;;18.40;55.30;;;;;;10247693;28;1902;-69
2023/01/05 10:30:06;;;;;;;;;;;18.40;55.30;;;;;;10246395;28;915;-70
2023/01/05 10:35:03;;;;;;;;;;;18.40;55.30;;;;;;10246754;28;1274;-73
2023/01/05 10:39:58;;;;;;;;;;;18.40;55.40;;;;;;10247145;28;810;-73
2023/01/05 10:44:54;;;;;;;;;;;18.30;55.60;;;;;;10246256;28;1971;-71
2023/01/05 10:49:49;;;;;;;;;;;18.30;56.20;;;;;;10246747;28;846;-72
2023/01/05 10:54:46;;;;;;;;;;;18.40;55.80;;;;;;10246138;28;794;-71
2023/01/05 10:59:41;;;;;;;;;;;18.40;55.80;;;;;;10245216;28;835;-70
2023/01/05 11:04:36;;;;;;;;;;;18.50;55.90;;;;;;10245090;28;1898;-71
2023/01/05 11:09:32;;;;;;;;;;;18.50;55.80;;;;;;10245681;28;899;-71
2023/01/05 11:14:27;;;;;;;;;;;18.50;55.80;;;;;;10244311;28;885;-71
2023/01/05 11:19:23;;;;;;;;;;;18.50;55.80;;;;;;10245377;28;810;-71
2023/01/05 11:24:18;;;;;;;;;;;18.50;56.00;;;;;;10245093;28;1962;-71
2023/01/05 11:29:14;;;;;;;;;;;18.50;56.20;;;;;;10245081;28;889;-71
2023/01/05 11:34:09;;;;;;;;;;;18.50;56.40;;;;;;10244632;28;1472;-71
2023/01/05 11:39:05;;;;;;;;;;;18.50;56.40;;;;;;10243614;28;1323;-71
2023/01/05 11:44:02;;;;;;;;;;;18.50;56.40;;;;;;10244000;28;1969;-71
2023/01/05 11:48:57;;;;;;;;;;;18.50;56.50;;;;;;10244526;28;896;-71
2023/01/05 11:53:52;;;;;;;;;;;18.50;56.60;;;;;;10243249;28;877;-71
2023/01/05 11:58:48;;;;;;;;;;;18.60;56.60;;;;;;10243756;28;961;-71
2023/01/05 12:03:43;;;;;;;;;;;18.60;56.40;;;;;;10243568;28;837;-71
2023/01/05 12:08:38;;;;;;;;;;;18.60;56.40;;;;;;10244109;28;1903;-71
2023/01/05 12:13:34;;;;;;;;;;;18.60;56.50;;;;;;10242898;28;834;-71
2023/01/05 12:18:29;;;;;;;;;;;18.60;56.40;;;;;;10243358;28;743;-71
2023/01/05 12:23:26;;;;;;;;;;;18.60;56.50;;;;;;10244205;28;862;-71
2023/01/05 12:28:21;;;;;;;;;;;18.60;56.50;;;;;;10247964;28;1949;-75
2023/01/05 12:33:19;;;;;;;;;;;18.50;56.70;;;;;;10250712;28;1322;-75
2023/01/05 12:38:15;;;;;;;;;;;18.40;56.90;;;;;;10250892;28;857;-75
2023/01/05 12:43:10;;;;;;;;;;;18.20;57.00;;;;;;10251357;28;892;-73
2023/01/05 12:48:06;;;;;;;;;;;18.10;56.90;;;;;;10251107;28;1906;-74
2023/01/05 12:53:01;;;;;;;;;;;18.10;57.00;;;;;;10250318;28;919;-69
2023/01/05 12:57:57;;;;;;;;;;;18.20;56.90;;;;;;10247208;28;935;-70
2023/01/05 13:02:52;;;;;;;;;;;18.30;56.60;;;;;;10249455;28;803;-70
2023/01/05 13:07:47;;;;;;;;;;;18.40;56.60;;;;;;10249132;28;1902;-70
2023/01/05 13:12:43;;;;;;;;;;;18.60;56.50;;;;;;10249547;28;893;-71
2023/01/05 13:17:38;;;;;;;;;;;18.60;56.40;;;;;;10249514;28;995;-70
2023/01/05 13:22:34;;;;;;;;;;;18.60;56.20;;;;;;10248415;28;882;-70
2023/01/05 13:27:30;;;;;;;;;;;18.60;56.00;;;;;;10249053;28;1967;-70
2023/01/05 13:32:26;;;;;;;;;;;18.70;56.10;;;;;;10248450;28;1624;-70
2023/01/05 13:37:21;;;;;;;;;;;18.60;56.20;;;;;;10248053;28;787;-70
2023/01/05 13:42:18;;;;;;;;;;;18.60;56.20;;;;;;10248809;28;1034;-70
2023/01/05 13:47:13;;;;;;;;;;;18.60;56.20;;;;;;10248210;28;1973;-70
2023/01/05 13:52:09;;;;;;;;;;;18.60;56.10;;;;;;10247581;28;971;-71
2023/01/05 13:57:04;;;;;;;;;;;18.60;56.30;;;;;;10247932;28;790;-70
2023/01/05 14:02:00;;;;;;;;;;;18.60;56.00;;;;;;10248219;28;919;-71
2023/01/05 14:06:55;;;;;;;;;;;18.60;56.00;;;;;;10248062;28;1906;-70
2023/01/05 14:11:51;;;;;;;;;;;18.60;55.90;;;;;;10247946;28;849;-70
2023/01/05 14:16:46;;;;;;;;;;;18.70;55.80;;;;;;10247218;28;763;-70
2023/01/05 14:21:41;;;;;;;;;;;18.70;55.60;;;;;;10246499;28;866;-70
2023/01/05 14:26:37;;;;;;;;;;;18.70;55.40;;;;;;10246790;28;1967;-70
2023/01/05 14:31:32;;;;;;;;;;;18.70;55.40;;;;;;10247205;28;906;-72
2023/01/05 14:36:27;;;;;;;;;;;18.60;55.40;;;;;;10242731;28;1185;-71
2023/01/05 14:41:23;;;;;;;;;;;18.60;55.40;;;;;;10245216;28;787;-69
2023/01/05 14:46:18;;;;;;;;;;;18.60;55.20;;;;;;10244684;28;1910;-70
2023/01/05 14:51:14;;;;;;;;;;;18.60;55.30;;;;;;10245517;28;821;-71
2023/01/05 14:56:09;;;;;;;;;;;18.60;55.40;;;;;;10235872;28;1709;-70
2023/01/05 15:01:04;;;;;;;;;;;18.60;55.30;;;;;;10241129;28;1007;-70
2023/01/05 15:06:00;;;;;;;;;;;18.60;55.30;;;;;;10243560;28;1906;-70
2023/01/05 15:10:55;;;;;;;;;;;18.60;55.40;;;;;;10245240;28;865;-70
2023/01/05 15:15:50;;;;;;;;;;;18.60;55.40;;;;;;10243994;28;905;-71
2023/01/05 15:20:46;;;;;;;;;;;18.60;55.60;;;;;;10244937;28;917;-70
2023/01/05 15:25:41;;;;;;;;;;;18.60;55.40;;;;;;10244312;28;1902;-71
2023/01/05 15:30:37;;;;;;;;;;;18.60;55.40;;;;;;10245027;28;870;-70
2023/01/05 15:35:32;;;;;;;;;;;18.60;55.40;;;;;;10243525;28;1374;-72
2023/01/05 15:40:28;;;;;;;;;;;18.60;55.40;;;;;;10244019;28;941;-72
2023/01/05 15:45:23;;;;;;;;;;;18.60;55.40;;;;;;10243960;28;1930;-72
2023/01/05 15:50:18;;;;;;;;;;;18.60;55.30;;;;;;10243841;28;821;-72
2023/01/05 15:55:14;;;;;;;;;;;18.60;55.20;;;;;;10243426;28;830;-72
2023/01/05 16:00:09;;;;;;;;;;;18.70;55.70;;;;;;10242844;28;1211;-72
2023/01/05 16:05:05;;;;;;;;;;;18.70;55.20;;;;;;10243293;28;1898;-72
2023/01/05 16:10:00;;;;;;;;;;;18.70;55.30;;;;;;10242949;28;1132;-72
2023/01/05 16:14:56;;;;;;;;;;;18.70;55.40;;;;;;10243288;28;777;-72
2023/01/05 16:19:52;;;;;;;;;;;18.70;55.30;;;;;;10243551;28;857;-73
2023/01/05 16:24:47;;;;;;;;;;;18.70;55.40;;;;;;10242774;28;1894;-73
2023/01/05 16:29:45;;;;;;;;;;;18.70;55.50;;;;;;10242873;28;909;-72
2023/01/05 16:34:41;;;;;;;;;;;18.70;55.40;;;;;;10243630;28;1437;-70
2023/01/05 16:39:36;;;;;;;;;;;18.70;55.00;;;;;;10242780;28;881;-70
2023/01/05 16:44:34;;;;;;;;;;;18.70;55.10;;;;;;10207597;28;1985;-70
2023/01/05 16:49:30;;;;;;;;;;;18.60;55.10;;;;;;10201597;28;1238;-70
2023/01/05 16:54:26;;;;;;;;;;;18.60;55.10;;;;;;10201922;28;904;-70
2023/01/05 16:59:22;;;;;;;;;;;18.60;55.10;;;;;;10201891;28;875;-70
2023/01/05 17:04:17;;;;;;;;;;;18.70;55.10;;;;;;10201573;28;1907;-70
2023/01/05 17:09:12;;;;;;;;;;;18.70;55.00;;;;;;10201753;28;771;-70
2023/01/05 17:14:08;;;;;;;;;;;18.70;54.90;;;;;;10205070;28;822;-70
2023/01/05 17:19:03;;;;;;;;;;;18.70;55.20;;;;;;10242469;28;1141;-70
2023/01/05 17:23:58;;;;;;;;;;;18.70;55.00;;;;;;10249080;28;1969;-70
2023/01/05 17:28:54;;;;;;;;;;;18.70;55.00;;;;;;10248716;28;842;-70
2023/01/05 17:33:49;;;;;;;;;;;18.70;55.20;;;;;;10248565;28;1742;-82
2023/01/05 17:38:45;;;;;;;;;;;18.70;55.10;;;;;;10247310;28;1010;-74
2023/01/05 17:43:40;;;;;;;;;;;18.40;55.10;;;;;;10248823;28;970;-71
2023/01/05 17:48:35;;;;;;;;;;;18.50;55.50;;;;;;10249241;28;1979;-71
2023/01/05 17:53:31;;;;;;;;;;;18.60;55.40;;;;;;10248534;28;802;-71
2023/01/05 17:58:26;;;;;;;;;;;18.50;55.40;;;;;;10248332;28;782;-71
2023/01/05 18:03:21;;;;;;;;;;;18.60;55.40;;;;;;10249320;28;853;-71
2023/01/05 18:08:17;;;;;;;;;;;18.60;55.40;;;;;;10247969;28;1899;-71
2023/01/05 18:13:12;;;;;;;;;;;18.60;56.10;;;;;;10248560;28;843;-71
2023/01/05 18:18:08;;;;;;;;;;;18.60;55.30;;;;;;10247543;28;937;-71
2023/01/05 18:23:03;;;;;;;;;;;18.70;55.30;;;;;;10247263;28;858;-70
2023/01/05 18:27:58;;;;;;;;;;;18.70;55.20;;;;;;10247371;28;1902;-69
2023/01/05 18:32:54;;;;;;;;;;;18.70;55.30;;;;;;10247115;28;1268;-69
2023/01/05 18:37:49;;;;;;;;;;;18.70;55.30;;;;;;10246971;28;856;-69
2023/01/05 18:42:47;;;;;;;;;;;18.70;55.30;;;;;;10247434;28;946;-69
2023/01/05 18:47:42;;;;;;;;;;;18.70;55.40;;;;;;10246244;28;1902;-69
2023/01/05 18:52:38;;;;;;;;;;;18.70;55.30;;;;;;10246212;28;798;-69
2023/01/05 18:57:34;;;;;;;;;;;18.70;55.40;;;;;;10246064;28;869;-69
2023/01/05 19:02:30;;;;;;;;;;;18.70;55.30;;;;;;10245195;28;854;-69
2023/01/05 19:07:25;;;;;;;;;;;18.70;55.30;;;;;;10245575;28;1967;-69
2023/01/05 19:12:20;;;;;;;;;;;18.70;55.30;;;;;;10245884;28;843;-69
2023/01/05 19:17:16;;;;;;;;;;;18.70;55.40;;;;;;10245310;28;766;-71
2023/01/05 19:22:11;;;;;;;;;;;18.70;55.20;;;;;;10245220;28;859;-71
2023/01/05 19:27:07;;;;;;;;;;;18.70;55.20;;;;;;10244983;28;1902;-72
2023/01/05 19:32:02;;;;;;;;;;;18.70;55.30;;;;;;10245408;28;930;-73
2023/01/05 19:36:57;;;;;;;;;;;18.60;55.60;;;;;;10245036;28;1407;-77
2023/01/05 19:41:53;;;;;;;;;;;18.40;56.00;;;;;;10245146;28;822;-85
2023/01/05 19:46:50;;;;;;;;;;;18.20;56.10;;;;;;10244325;28;1918;-75
2023/01/05 19:51:46;;;;;;;;;;;18.20;56.20;;;;;;10245008;28;833;-75
2023/01/05 19:56:43;;;;;;;;;;;18.20;56.20;;;;;;10244192;28;989;-75
2023/01/05 20:01:39;;;;;;;;;;;18.20;56.20;;;;;;10244614;28;1126;-75
2023/01/05 20:06:34;;;;;;;;;;;18.20;56.10;;;;;;10244034;28;1969;-75
2023/01/05 20:11:38;;;;;;;;;;;18.10;56.00;;;;;;10244465;28;817;-75
2023/01/05 20:16:33;;;;;;;;;;;18.10;56.00;;;;;;10243166;28;910;-75
2023/01/05 20:21:31;;;;;;;;;;;18.10;56.00;;;;;;10243699;28;834;-75
2023/01/05 20:26:26;;;;;;;;;;;18.10;56.00;;;;;;10243498;28;1958;-75
2023/01/05 20:31:24;;;;;;;;;;;18.10;55.90;;;;;;10243946;28;831;-75
2023/01/05 20:36:19;;;;;;;;;;;18.10;55.90;;;;;;10243222;28;1522;-75
2023/01/05 20:41:15;;;;;;;;;;;18.10;55.80;;;;;;10243892;28;781;-75
2023/01/05 20:46:10;;;;;;;;;;;18.10;55.80;;;;;;10243201;28;1994;-75
2023/01/05 20:51:06;;;;;;;;;;;18.10;55.80;;;;;;10250569;28;815;-75
2023/01/05 20:56:01;;;;;;;;;;;18.10;55.80;;;;;;10250720;28;898;-75
2023/01/05 21:00:57;;;;;;;;;;;18.10;55.80;;;;;;10250625;28;859;-75
2023/01/05 21:05:52;;;;;;;;;;;18.10;55.80;;;;;;10250977;28;1955;-75
2023/01/05 21:10:48;;;;;;;;;;;18.00;55.70;;;;;;10250739;28;818;-75
2023/01/05 21:15:43;;;;;;;;;;;18.00;55.80;;;;;;10249376;28;881;-75
2023/01/05 21:20:38;;;;;;;;;;;18.00;55.80;;;;;;10249808;28;814;-75
2023/01/05 21:25:34;;;;;;;;;;;18.00;55.80;;;;;;10250146;28;1972;-75
2023/01/05 21:30:29;;;;;;;;;;;18.00;55.70;;;;;;10249502;28;821;-75
2023/01/05 21:35:25;;;;;;;;;;;18.00;55.70;;;;;;10250122;28;1137;-75
2023/01/05 21:40:20;;;;;;;;;;;18.00;55.70;;;;;;10249670;28;949;-75
2023/01/05 21:45:16;;;;;;;;;;;18.00;55.70;;;;;;10249874;28;1914;-75
2023/01/05 21:56:24;;;;;;;;;;;18.00;55.70;;;;;;10249339;28;935;-75
2023/01/05 22:00:41;;;;;;;;;;;18.00;55.60;;;;;;10247582;28;652;-74
2023/01/05 22:05:36;;;;;;;;;;;18.00;55.70;;;;;;10248047;28;1914;-73
2023/01/05 22:10:34;;;;;;;;;;;18.00;55.70;;;;;;10248495;28;925;-72
2023/01/05 22:15:30;;;;;;;;;;;18.00;55.60;;;;;;10248060;28;954;-72
2023/01/05 22:20:25;;;;;;;;;;;18.00;55.70;;;;;;10247511;28;893;-72
2023/01/05 22:25:20;;;;;;;;;;;18.00;55.60;;;;;;10247272;28;1906;-73
2023/01/05 22:30:16;;;;;;;;;;;18.00;55.60;;;;;;10247151;28;939;-71
2023/01/05 22:35:11;;;;;;;;;;;18.00;55.60;;;;;;10246818;28;1320;-71
2023/01/05 22:40:07;;;;;;;;;;;18.00;55.70;;;;;;10246168;28;889;-71
2023/01/05 22:45:02;;;;;;;;;;;18.00;55.60;;;;;;10247141;28;1967;-71
2023/01/05 22:49:58;;;;;;;;;;;18.00;55.60;;;;;;10246926;28;909;-71
2023/01/05 22:54:53;;;;;;;;;;;18.00;55.60;;;;;;10247412;28;833;-71
2023/01/05 22:59:48;;;;;;;;;;;18.00;55.60;;;;;;10245989;28;927;-71
2023/01/05 23:04:44;;;;;;;;;;;18.00;55.60;;;;;;10246091;28;1901;-71
2023/01/05 23:09:39;;;;;;;;;;;17.90;55.60;;;;;;10245629;28;791;-71
2023/01/05 23:14:34;;;;;;;;;;;17.90;55.60;;;;;;10246261;28;879;-71
2023/01/05 23:19:30;;;;;;;;;;;18.00;55.70;;;;;;10245872;28;897;-71
2023/01/05 23:24:25;;;;;;;;;;;18.00;55.70;;;;;;10244989;28;1967;-71
2023/01/05 23:29:20;;;;;;;;;;;18.00;55.60;;;;;;10244415;28;929;-71
2023/01/05 23:34:16;;;;;;;;;;;18.00;55.70;;;;;;10244717;28;1502;-71
2023/01/05 23:39:11;;;;;;;;;;;18.00;55.70;;;;;;10244664;28;873;-71
2023/01/05 23:44:07;;;;;;;;;;;17.90;55.60;;;;;;10245424;28;816;-71
2023/01/05 23:49:02;;;;;;;;;;;17.90;55.60;;;;;;10244335;28;1906;-71
2023/01/05 23:53:58;;;;;;;;;;;17.90;55.70;;;;;;10244277;28;834;-71
2023/01/05 23:58:53;;;;;;;;;;;18.00;55.70;;;;;;10244214;28;762;-71
